sensor_id;sensor_type;location;lat;lon;timestamp;P1;durP1;ratioP1;P2;durP2;ratioP2
35839;SDS011;35514;50.504;30.500;2023-04-15T00:01:56;4.93;;;3.30;;
35839;SDS011;35514;50.504;30.500;2023-04-15T00:04:25;7.78;;;4.78;;
35839;SDS011;35514;50.504;30.500;2023-04-15T00:06:53;8.93;;;4.00;;
35839;SDS011;35514;50.504;30.500;2023-04-15T00:09:21;6.28;;;4.30;;
35839;SDS011;35514;50.504;30.500;2023-04-15T00:11:49;6.38;;;3.92;;
35839;SDS011;35514;50.504;30.500;2023-04-15T00:14:16;7.65;;;3.88;;
35839;SDS011;35514;50.504;30.500;2023-04-15T00:16:45;5.65;;;3.70;;
35839;SDS011;35514;50.504;30.500;2023-04-15T00:19:15;8.57;;;4.40;;
35839;SDS011;35514;50.504;30.500;2023-04-15T00:21:42;8.63;;;4.28;;
35839;SDS011;35514;50.504;30.500;2023-04-15T00:24:10;5.95;;;3.78;;
35839;SDS011;35514;50.504;30.500;2023-04-15T00:26:38;8.38;;;3.97;;
35839;SDS011;35514;50.504;30.500;2023-04-15T00:29:06;7.53;;;3.75;;
35839;SDS011;35514;50.504;30.500;2023-04-15T00:31:34;6.80;;;4.05;;
35839;SDS011;35514;50.504;30.500;2023-04-15T00:34:03;6.22;;;3.95;;
35839;SDS011;35514;50.504;30.500;2023-04-15T00:36:31;9.55;;;4.55;;
35839;SDS011;35514;50.504;30.500;2023-04-15T00:39:00;6.30;;;3.65;;
35839;SDS011;35514;50.504;30.500;2023-04-15T00:41:29;9.32;;;4.32;;
35839;SDS011;35514;50.504;30.500;2023-04-15T00:43:57;8.10;;;4.82;;
35839;SDS011;35514;50.504;30.500;2023-04-15T00:46:25;9.98;;;4.80;;
35839;SDS011;35514;50.504;30.500;2023-04-15T00:48:53;9.43;;;4.85;;
35839;SDS011;35514;50.504;30.500;2023-04-15T00:54:20;8.60;;;4.60;;
35839;SDS011;35514;50.504;30.500;2023-04-15T00:56:48;6.28;;;4.40;;
35839;SDS011;35514;50.504;30.500;2023-04-15T00:59:15;8.98;;;5.07;;
35839;SDS011;35514;50.504;30.500;2023-04-15T01:01:43;14.25;;;4.15;;
35839;SDS011;35514;50.504;30.500;2023-04-15T01:04:11;9.85;;;5.15;;
35839;SDS011;35514;50.504;30.500;2023-04-15T01:06:39;7.55;;;4.68;;
35839;SDS011;35514;50.504;30.500;2023-04-15T01:09:07;10.63;;;4.68;;
35839;SDS011;35514;50.504;30.500;2023-04-15T01:11:36;6.75;;;3.95;;
35839;SDS011;35514;50.504;30.500;2023-04-15T01:14:04;12.90;;;5.68;;
35839;SDS011;35514;50.504;30.500;2023-04-15T01:16:32;9.00;;;4.38;;
35839;SDS011;35514;50.504;30.500;2023-04-15T01:19:00;12.07;;;4.57;;
35839;SDS011;35514;50.504;30.500;2023-04-15T01:21:28;12.75;;;3.90;;
35839;SDS011;35514;50.504;30.500;2023-04-15T01:23:56;9.25;;;4.80;;
35839;SDS011;35514;50.504;30.500;2023-04-15T01:26:25;10.18;;;4.68;;
35839;SDS011;35514;50.504;30.500;2023-04-15T01:28:53;8.05;;;4.55;;
35839;SDS011;35514;50.504;30.500;2023-04-15T01:31:21;11.05;;;4.97;;
35839;SDS011;35514;50.504;30.500;2023-04-15T01:33:49;9.32;;;4.75;;
35839;SDS011;35514;50.504;30.500;2023-04-15T01:36:17;6.40;;;3.97;;
35839;SDS011;35514;50.504;30.500;2023-04-15T01:38:45;9.55;;;4.68;;
35839;SDS011;35514;50.504;30.500;2023-04-15T01:41:13;8.40;;;4.13;;
35839;SDS011;35514;50.504;30.500;2023-04-15T01:43:42;9.43;;;4.72;;
35839;SDS011;35514;50.504;30.500;2023-04-15T01:46:10;6.63;;;4.47;;
35839;SDS011;35514;50.504;30.500;2023-04-15T01:48:38;8.52;;;4.47;;
35839;SDS011;35514;50.504;30.500;2023-04-15T01:51:05;8.88;;;4.47;;
35839;SDS011;35514;50.504;30.500;2023-04-15T01:53:33;7.78;;;4.63;;
35839;SDS011;35514;50.504;30.500;2023-04-15T01:56:01;9.65;;;4.65;;
35839;SDS011;35514;50.504;30.500;2023-04-15T01:58:29;11.27;;;5.60;;
35839;SDS011;35514;50.504;30.500;2023-04-15T02:00:58;10.32;;;4.40;;
35839;SDS011;35514;50.504;30.500;2023-04-15T02:03:27;8.25;;;4.72;;
35839;SDS011;35514;50.504;30.500;2023-04-15T02:05:55;7.88;;;4.13;;
35839;SDS011;35514;50.504;30.500;2023-04-15T02:08:23;17.90;;;5.30;;
35839;SDS011;35514;50.504;30.500;2023-04-15T02:10:51;11.45;;;4.57;;
35839;SDS011;35514;50.504;30.500;2023-04-15T02:13:18;10.02;;;5.40;;
35839;SDS011;35514;50.504;30.500;2023-04-15T02:15:46;11.65;;;5.40;;
35839;SDS011;35514;50.504;30.500;2023-04-15T02:18:16;8.45;;;4.90;;
35839;SDS011;35514;50.504;30.500;2023-04-15T02:20:44;9.57;;;5.22;;
35839;SDS011;35514;50.504;30.500;2023-04-15T02:23:12;8.60;;;4.60;;
35839;SDS011;35514;50.504;30.500;2023-04-15T02:25:41;9.27;;;5.00;;
35839;SDS011;35514;50.504;30.500;2023-04-15T02:28:19;11.20;;;5.45;;
35839;SDS011;35514;50.504;30.500;2023-04-15T02:30:47;10.38;;;5.40;;
35839;SDS011;35514;50.504;30.500;2023-04-15T02:33:18;14.20;;;5.85;;
35839;SDS011;35514;50.504;30.500;2023-04-15T02:35:45;12.32;;;5.82;;
35839;SDS011;35514;50.504;30.500;2023-04-15T02:38:13;12.45;;;5.78;;
35839;SDS011;35514;50.504;30.500;2023-04-15T02:40:43;11.65;;;5.72;;
35839;SDS011;35514;50.504;30.500;2023-04-15T02:43:10;10.85;;;5.18;;
35839;SDS011;35514;50.504;30.500;2023-04-15T02:45:38;10.18;;;6.00;;
35839;SDS011;35514;50.504;30.500;2023-04-15T02:48:06;14.93;;;7.38;;
35839;SDS011;35514;50.504;30.500;2023-04-15T02:50:35;11.30;;;6.03;;
35839;SDS011;35514;50.504;30.500;2023-04-15T02:53:05;10.43;;;5.47;;
35839;SDS011;35514;50.504;30.500;2023-04-15T02:55:32;18.27;;;7.10;;
35839;SDS011;35514;50.504;30.500;2023-04-15T02:58:00;15.70;;;5.68;;
35839;SDS011;35514;50.504;30.500;2023-04-15T03:00:28;10.68;;;5.70;;
35839;SDS011;35514;50.504;30.500;2023-04-15T03:02:57;11.60;;;5.78;;
35839;SDS011;35514;50.504;30.500;2023-04-15T03:05:25;13.77;;;6.05;;
35839;SDS011;35514;50.504;30.500;2023-04-15T03:07:54;10.60;;;5.50;;
35839;SDS011;35514;50.504;30.500;2023-04-15T03:10:22;11.57;;;5.20;;
35839;SDS011;35514;50.504;30.500;2023-04-15T03:12:49;13.20;;;5.60;;
35839;SDS011;35514;50.504;30.500;2023-04-15T03:15:17;11.68;;;5.72;;
35839;SDS011;35514;50.504;30.500;2023-04-15T03:17:45;11.90;;;5.80;;
35839;SDS011;35514;50.504;30.500;2023-04-15T03:20:14;10.15;;;6.10;;
35839;SDS011;35514;50.504;30.500;2023-04-15T03:22:42;13.55;;;6.07;;
35839;SDS011;35514;50.504;30.500;2023-04-15T03:25:12;10.63;;;5.80;;
35839;SDS011;35514;50.504;30.500;2023-04-15T03:27:40;10.57;;;5.65;;
35839;SDS011;35514;50.504;30.500;2023-04-15T03:30:08;12.52;;;5.53;;
35839;SDS011;35514;50.504;30.500;2023-04-15T03:32:36;10.75;;;6.00;;
35839;SDS011;35514;50.504;30.500;2023-04-15T03:35:04;9.32;;;5.50;;
35839;SDS011;35514;50.504;30.500;2023-04-15T03:37:31;10.38;;;5.38;;
35839;SDS011;35514;50.504;30.500;2023-04-15T03:39:59;12.10;;;6.50;;
35839;SDS011;35514;50.504;30.500;2023-04-15T03:42:28;8.75;;;5.18;;
35839;SDS011;35514;50.504;30.500;2023-04-15T03:44:56;13.18;;;5.10;;
35839;SDS011;35514;50.504;30.500;2023-04-15T03:47:24;14.82;;;5.50;;
35839;SDS011;35514;50.504;30.500;2023-04-15T03:49:51;16.58;;;5.70;;
35839;SDS011;35514;50.504;30.500;2023-04-15T03:52:19;10.77;;;5.28;;
35839;SDS011;35514;50.504;30.500;2023-04-15T03:54:46;10.98;;;5.55;;
35839;SDS011;35514;50.504;30.500;2023-04-15T03:57:14;10.77;;;5.80;;
35839;SDS011;35514;50.504;30.500;2023-04-15T03:59:43;11.20;;;5.60;;
35839;SDS011;35514;50.504;30.500;2023-04-15T04:02:11;8.55;;;4.93;;
35839;SDS011;35514;50.504;30.500;2023-04-15T04:04:39;12.35;;;5.68;;
35839;SDS011;35514;50.504;30.500;2023-04-15T04:07:07;14.38;;;6.60;;
35839;SDS011;35514;50.504;30.500;2023-04-15T04:09:35;12.30;;;5.55;;
35839;SDS011;35514;50.504;30.500;2023-04-15T04:12:04;11.05;;;6.05;;
35839;SDS011;35514;50.504;30.500;2023-04-15T04:14:35;17.70;;;6.38;;
35839;SDS011;35514;50.504;30.500;2023-04-15T04:17:14;11.18;;;5.82;;
35839;SDS011;35514;50.504;30.500;2023-04-15T04:19:45;11.07;;;6.07;;
35839;SDS011;35514;50.504;30.500;2023-04-15T04:22:15;13.88;;;7.38;;
35839;SDS011;35514;50.504;30.500;2023-04-15T04:24:43;11.13;;;5.80;;
35839;SDS011;35514;50.504;30.500;2023-04-15T04:27:11;11.77;;;6.50;;
35839;SDS011;35514;50.504;30.500;2023-04-15T04:29:41;16.58;;;6.40;;
35839;SDS011;35514;50.504;30.500;2023-04-15T04:32:14;12.25;;;6.18;;
35839;SDS011;35514;50.504;30.500;2023-04-15T04:34:42;12.27;;;6.78;;
35839;SDS011;35514;50.504;30.500;2023-04-15T04:37:10;10.70;;;6.18;;
35839;SDS011;35514;50.504;30.500;2023-04-15T04:39:38;13.85;;;6.43;;
35839;SDS011;35514;50.504;30.500;2023-04-15T04:42:06;16.70;;;6.38;;
35839;SDS011;35514;50.504;30.500;2023-04-15T04:44:33;11.63;;;6.40;;
35839;SDS011;35514;50.504;30.500;2023-04-15T04:47:01;18.17;;;8.73;;
35839;SDS011;35514;50.504;30.500;2023-04-15T04:49:30;15.60;;;6.80;;
35839;SDS011;35514;50.504;30.500;2023-04-15T04:51:58;23.88;;;6.53;;
35839;SDS011;35514;50.504;30.500;2023-04-15T04:54:27;18.15;;;7.15;;
35839;SDS011;35514;50.504;30.500;2023-04-15T04:56:55;12.60;;;6.45;;
35839;SDS011;35514;50.504;30.500;2023-04-15T04:59:24;20.20;;;7.00;;
35839;SDS011;35514;50.504;30.500;2023-04-15T05:01:54;12.05;;;6.30;;
35839;SDS011;35514;50.504;30.500;2023-04-15T05:04:24;18.23;;;6.88;;
35839;SDS011;35514;50.504;30.500;2023-04-15T05:06:54;14.82;;;7.40;;
35839;SDS011;35514;50.504;30.500;2023-04-15T05:09:22;12.52;;;6.32;;
35839;SDS011;35514;50.504;30.500;2023-04-15T05:11:49;19.90;;;8.15;;
35839;SDS011;35514;50.504;30.500;2023-04-15T05:14:17;18.70;;;7.43;;
35839;SDS011;35514;50.504;30.500;2023-04-15T05:16:46;12.23;;;6.07;;
35839;SDS011;35514;50.504;30.500;2023-04-15T05:19:14;15.93;;;6.90;;
35839;SDS011;35514;50.504;30.500;2023-04-15T05:21:42;16.45;;;7.78;;
35839;SDS011;35514;50.504;30.500;2023-04-15T05:24:13;23.58;;;9.52;;
35839;SDS011;35514;50.504;30.500;2023-04-15T05:26:41;15.93;;;6.60;;
35839;SDS011;35514;50.504;30.500;2023-04-15T05:29:09;16.25;;;6.45;;
35839;SDS011;35514;50.504;30.500;2023-04-15T05:31:42;18.80;;;7.38;;
35839;SDS011;35514;50.504;30.500;2023-04-15T05:34:19;17.58;;;7.00;;
35839;SDS011;35514;50.504;30.500;2023-04-15T05:36:55;14.35;;;7.35;;
35839;SDS011;35514;50.504;30.500;2023-04-15T05:39:59;15.55;;;6.13;;
35839;SDS011;35514;50.504;30.500;2023-04-15T05:42:26;13.35;;;6.40;;
35839;SDS011;35514;50.504;30.500;2023-04-15T05:44:54;15.63;;;6.65;;
35839;SDS011;35514;50.504;30.500;2023-04-15T05:47:22;14.63;;;6.32;;
35839;SDS011;35514;50.504;30.500;2023-04-15T05:49:50;17.67;;;6.78;;
35839;SDS011;35514;50.504;30.500;2023-04-15T05:52:21;15.82;;;6.13;;
35839;SDS011;35514;50.504;30.500;2023-04-15T05:54:49;14.52;;;5.70;;
35839;SDS011;35514;50.504;30.500;2023-04-15T05:57:18;13.23;;;6.15;;
35839;SDS011;35514;50.504;30.500;2023-04-15T05:59:47;15.35;;;6.93;;
35839;SDS011;35514;50.504;30.500;2023-04-15T06:02:16;10.18;;;5.82;;
35839;SDS011;35514;50.504;30.500;2023-04-15T06:04:44;10.70;;;5.28;;
35839;SDS011;35514;50.504;30.500;2023-04-15T06:07:12;13.48;;;5.93;;
35839;SDS011;35514;50.504;30.500;2023-04-15T06:09:41;15.05;;;5.88;;
35839;SDS011;35514;50.504;30.500;2023-04-15T06:12:08;11.10;;;5.20;;
35839;SDS011;35514;50.504;30.500;2023-04-15T06:14:39;12.93;;;5.40;;
35839;SDS011;35514;50.504;30.500;2023-04-15T06:17:12;12.77;;;5.85;;
35839;SDS011;35514;50.504;30.500;2023-04-15T06:19:47;12.63;;;5.47;;
35839;SDS011;35514;50.504;30.500;2023-04-15T06:22:24;12.60;;;5.60;;
35839;SDS011;35514;50.504;30.500;2023-04-15T06:24:52;11.32;;;5.95;;
35839;SDS011;35514;50.504;30.500;2023-04-15T06:27:25;8.82;;;4.55;;
35839;SDS011;35514;50.504;30.500;2023-04-15T06:29:54;11.20;;;5.75;;
35839;SDS011;35514;50.504;30.500;2023-04-15T06:32:21;16.15;;;7.80;;
35839;SDS011;35514;50.504;30.500;2023-04-15T06:34:49;11.60;;;5.70;;
35839;SDS011;35514;50.504;30.500;2023-04-15T06:37:17;7.95;;;4.47;;
35839;SDS011;35514;50.504;30.500;2023-04-15T06:39:47;9.80;;;4.50;;
35839;SDS011;35514;50.504;30.500;2023-04-15T06:42:14;9.38;;;5.32;;
35839;SDS011;35514;50.504;30.500;2023-04-15T06:44:42;8.45;;;4.68;;
35839;SDS011;35514;50.504;30.500;2023-04-15T06:47:11;14.55;;;4.47;;
35839;SDS011;35514;50.504;30.500;2023-04-15T06:49:40;10.45;;;5.28;;
35839;SDS011;35514;50.504;30.500;2023-04-15T06:52:09;14.60;;;5.88;;
35839;SDS011;35514;50.504;30.500;2023-04-15T06:54:40;9.07;;;4.78;;
35839;SDS011;35514;50.504;30.500;2023-04-15T06:57:13;6.82;;;4.53;;
35839;SDS011;35514;50.504;30.500;2023-04-15T06:59:41;6.90;;;4.53;;
35839;SDS011;35514;50.504;30.500;2023-04-15T07:02:12;11.13;;;5.13;;
35839;SDS011;35514;50.504;30.500;2023-04-15T07:04:43;10.02;;;4.20;;
35839;SDS011;35514;50.504;30.500;2023-04-15T07:07:18;8.48;;;4.38;;
35839;SDS011;35514;50.504;30.500;2023-04-15T07:09:46;11.18;;;4.45;;
35839;SDS011;35514;50.504;30.500;2023-04-15T07:12:14;15.38;;;6.68;;
35839;SDS011;35514;50.504;30.500;2023-04-15T07:14:42;13.18;;;5.80;;
35839;SDS011;35514;50.504;30.500;2023-04-15T07:17:11;9.82;;;4.93;;
35839;SDS011;35514;50.504;30.500;2023-04-15T07:19:44;11.00;;;4.32;;
35839;SDS011;35514;50.504;30.500;2023-04-15T07:22:15;9.27;;;4.07;;
35839;SDS011;35514;50.504;30.500;2023-04-15T07:24:43;11.60;;;4.43;;
35839;SDS011;35514;50.504;30.500;2023-04-15T07:27:11;8.45;;;4.78;;
35839;SDS011;35514;50.504;30.500;2023-04-15T07:29:38;11.63;;;4.47;;
35839;SDS011;35514;50.504;30.500;2023-04-15T07:32:06;8.05;;;4.45;;
35839;SDS011;35514;50.504;30.500;2023-04-15T07:34:35;10.88;;;4.10;;
35839;SDS011;35514;50.504;30.500;2023-04-15T07:37:08;11.18;;;4.63;;
35839;SDS011;35514;50.504;30.500;2023-04-15T07:39:35;9.85;;;4.65;;
35839;SDS011;35514;50.504;30.500;2023-04-15T07:42:04;8.10;;;4.22;;
35839;SDS011;35514;50.504;30.500;2023-04-15T07:44:34;7.93;;;4.43;;
35839;SDS011;35514;50.504;30.500;2023-04-15T07:47:02;10.15;;;4.45;;
35839;SDS011;35514;50.504;30.500;2023-04-15T07:49:30;9.27;;;4.20;;
35839;SDS011;35514;50.504;30.500;2023-04-15T07:51:59;13.45;;;5.03;;
35839;SDS011;35514;50.504;30.500;2023-04-15T07:54:28;9.93;;;4.65;;
35839;SDS011;35514;50.504;30.500;2023-04-15T07:56:56;9.40;;;4.35;;
35839;SDS011;35514;50.504;30.500;2023-04-15T07:59:24;8.57;;;4.55;;
35839;SDS011;35514;50.504;30.500;2023-04-15T08:01:52;8.88;;;4.43;;
35839;SDS011;35514;50.504;30.500;2023-04-15T08:04:20;9.07;;;4.57;;
35839;SDS011;35514;50.504;30.500;2023-04-15T08:06:48;9.68;;;4.10;;
35839;SDS011;35514;50.504;30.500;2023-04-15T08:09:15;9.82;;;4.30;;
35839;SDS011;35514;50.504;30.500;2023-04-15T08:11:47;7.22;;;3.60;;
35839;SDS011;35514;50.504;30.500;2023-04-15T08:14:14;6.45;;;3.72;;
35839;SDS011;35514;50.504;30.500;2023-04-15T08:16:42;6.90;;;3.65;;
35839;SDS011;35514;50.504;30.500;2023-04-15T08:19:10;6.90;;;4.30;;
35839;SDS011;35514;50.504;30.500;2023-04-15T08:21:37;14.95;;;4.20;;
35839;SDS011;35514;50.504;30.500;2023-04-15T08:24:05;6.93;;;4.05;;
35839;SDS011;35514;50.504;30.500;2023-04-15T08:26:33;8.65;;;4.30;;
35839;SDS011;35514;50.504;30.500;2023-04-15T08:29:02;10.70;;;4.38;;
35839;SDS011;35514;50.504;30.500;2023-04-15T08:31:30;7.65;;;3.95;;
35839;SDS011;35514;50.504;30.500;2023-04-15T08:33:58;11.85;;;4.60;;
35839;SDS011;35514;50.504;30.500;2023-04-15T08:36:31;8.93;;;4.22;;
35839;SDS011;35514;50.504;30.500;2023-04-15T08:38:59;7.45;;;4.22;;
35839;SDS011;35514;50.504;30.500;2023-04-15T08:41:29;8.75;;;4.40;;
35839;SDS011;35514;50.504;30.500;2023-04-15T08:44:00;9.45;;;4.25;;
35839;SDS011;35514;50.504;30.500;2023-04-15T08:46:29;8.30;;;4.20;;
35839;SDS011;35514;50.504;30.500;2023-04-15T08:48:59;8.95;;;3.83;;
35839;SDS011;35514;50.504;30.500;2023-04-15T08:51:30;8.68;;;4.20;;
35839;SDS011;35514;50.504;30.500;2023-04-15T08:54:01;8.90;;;4.35;;
35839;SDS011;35514;50.504;30.500;2023-04-15T08:56:30;6.75;;;4.05;;
35839;SDS011;35514;50.504;30.500;2023-04-15T08:58:58;9.90;;;4.63;;
35839;SDS011;35514;50.504;30.500;2023-04-15T09:01:27;8.88;;;4.20;;
35839;SDS011;35514;50.504;30.500;2023-04-15T09:03:59;8.18;;;4.70;;
35839;SDS011;35514;50.504;30.500;2023-04-15T09:06:27;8.20;;;4.30;;
35839;SDS011;35514;50.504;30.500;2023-04-15T09:08:58;8.75;;;4.28;;
35839;SDS011;35514;50.504;30.500;2023-04-15T09:11:28;10.98;;;4.28;;
35839;SDS011;35514;50.504;30.500;2023-04-15T09:13:56;11.05;;;4.38;;
35839;SDS011;35514;50.504;30.500;2023-04-15T09:16:24;10.02;;;4.00;;
35839;SDS011;35514;50.504;30.500;2023-04-15T09:18:52;10.00;;;4.22;;
35839;SDS011;35514;50.504;30.500;2023-04-15T09:21:30;8.00;;;4.38;;
35839;SDS011;35514;50.504;30.500;2023-04-15T09:24:01;8.38;;;3.85;;
35839;SDS011;35514;50.504;30.500;2023-04-15T09:26:33;8.07;;;3.22;;
35839;SDS011;35514;50.504;30.500;2023-04-15T09:29:02;5.80;;;3.42;;
35839;SDS011;35514;50.504;30.500;2023-04-15T09:31:30;9.18;;;4.05;;
35839;SDS011;35514;50.504;30.500;2023-04-15T09:33:58;6.03;;;3.65;;
35839;SDS011;35514;50.504;30.500;2023-04-15T09:36:26;6.53;;;3.85;;
35839;SDS011;35514;50.504;30.500;2023-04-15T09:38:58;5.80;;;3.72;;
35839;SDS011;35514;50.504;30.500;2023-04-15T09:41:27;7.38;;;3.65;;
35839;SDS011;35514;50.504;30.500;2023-04-15T09:43:55;8.50;;;4.45;;
35839;SDS011;35514;50.504;30.500;2023-04-15T09:46:41;8.38;;;3.80;;
35839;SDS011;35514;50.504;30.500;2023-04-15T09:49:09;6.73;;;3.80;;
35839;SDS011;35514;50.504;30.500;2023-04-15T09:51:37;8.15;;;3.88;;
35839;SDS011;35514;50.504;30.500;2023-04-15T09:54:07;9.95;;;4.28;;
35839;SDS011;35514;50.504;30.500;2023-04-15T09:56:35;7.50;;;4.05;;
35839;SDS011;35514;50.504;30.500;2023-04-15T09:59:03;8.95;;;3.90;;
35839;SDS011;35514;50.504;30.500;2023-04-15T10:01:36;7.53;;;3.28;;
35839;SDS011;35514;50.504;30.500;2023-04-15T10:04:04;8.77;;;4.72;;
35839;SDS011;35514;50.504;30.500;2023-04-15T10:06:33;8.82;;;3.45;;
35839;SDS011;35514;50.504;30.500;2023-04-15T10:09:01;13.23;;;4.15;;
35839;SDS011;35514;50.504;30.500;2023-04-15T10:11:54;12.02;;;4.18;;
35839;SDS011;35514;50.504;30.500;2023-04-15T10:14:25;7.45;;;4.03;;
35839;SDS011;35514;50.504;30.500;2023-04-15T10:16:57;10.23;;;3.90;;
35839;SDS011;35514;50.504;30.500;2023-04-15T10:19:30;7.82;;;4.03;;
35839;SDS011;35514;50.504;30.500;2023-04-15T10:22:02;7.53;;;3.92;;
35839;SDS011;35514;50.504;30.500;2023-04-15T10:24:30;7.55;;;3.97;;
35839;SDS011;35514;50.504;30.500;2023-04-15T10:27:01;12.68;;;4.28;;
35839;SDS011;35514;50.504;30.500;2023-04-15T10:29:30;9.55;;;4.03;;
35839;SDS011;35514;50.504;30.500;2023-04-15T10:31:58;8.02;;;3.88;;
35839;SDS011;35514;50.504;30.500;2023-04-15T10:34:26;7.93;;;4.00;;
35839;SDS011;35514;50.504;30.500;2023-04-15T10:36:54;12.85;;;4.55;;
35839;SDS011;35514;50.504;30.500;2023-04-15T10:39:41;9.27;;;4.20;;
35839;SDS011;35514;50.504;30.500;2023-04-15T10:42:11;9.90;;;4.22;;
35839;SDS011;35514;50.504;30.500;2023-04-15T10:44:40;12.15;;;4.05;;
35839;SDS011;35514;50.504;30.500;2023-04-15T10:47:11;11.43;;;4.07;;
35839;SDS011;35514;50.504;30.500;2023-04-15T10:49:43;9.43;;;4.13;;
35839;SDS011;35514;50.504;30.500;2023-04-15T10:52:11;9.45;;;4.53;;
35839;SDS011;35514;50.504;30.500;2023-04-15T10:54:39;7.78;;;4.60;;
35839;SDS011;35514;50.504;30.500;2023-04-15T10:57:07;8.25;;;4.22;;
35839;SDS011;35514;50.504;30.500;2023-04-15T10:59:36;9.77;;;4.30;;
35839;SDS011;35514;50.504;30.500;2023-04-15T11:02:06;15.07;;;5.03;;
35839;SDS011;35514;50.504;30.500;2023-04-15T11:04:53;12.15;;;4.20;;
35839;SDS011;35514;50.504;30.500;2023-04-15T11:07:35;7.93;;;4.15;;
35839;SDS011;35514;50.504;30.500;2023-04-15T11:10:03;9.48;;;5.15;;
35839;SDS011;35514;50.504;30.500;2023-04-15T11:12:34;22.50;;;5.03;;
35839;SDS011;35514;50.504;30.500;2023-04-15T11:17:50;11.77;;;4.90;;
35839;SDS011;35514;50.504;30.500;2023-04-15T11:20:17;11.52;;;4.60;;
35839;SDS011;35514;50.504;30.500;2023-04-15T11:22:46;8.05;;;4.38;;
35839;SDS011;35514;50.504;30.500;2023-04-15T11:25:21;16.55;;;4.15;;
35839;SDS011;35514;50.504;30.500;2023-04-15T11:27:48;8.38;;;4.45;;
35839;SDS011;35514;50.504;30.500;2023-04-15T11:30:17;8.45;;;4.03;;
35839;SDS011;35514;50.504;30.500;2023-04-15T11:32:46;7.25;;;4.25;;
35839;SDS011;35514;50.504;30.500;2023-04-15T11:35:18;6.28;;;3.88;;
35839;SDS011;35514;50.504;30.500;2023-04-15T11:37:46;10.55;;;4.55;;
35839;SDS011;35514;50.504;30.500;2023-04-15T11:40:16;8.50;;;4.15;;
35839;SDS011;35514;50.504;30.500;2023-04-15T11:45:21;7.07;;;4.40;;
35839;SDS011;35514;50.504;30.500;2023-04-15T11:48:07;6.75;;;3.92;;
35839;SDS011;35514;50.504;30.500;2023-04-15T11:50:39;6.82;;;4.22;;
35839;SDS011;35514;50.504;30.500;2023-04-15T11:53:07;9.75;;;4.45;;
35839;SDS011;35514;50.504;30.500;2023-04-15T11:55:42;6.60;;;3.92;;
35839;SDS011;35514;50.504;30.500;2023-04-15T11:58:11;11.18;;;4.30;;
35839;SDS011;35514;50.504;30.500;2023-04-15T12:00:45;10.88;;;4.28;;
35839;SDS011;35514;50.504;30.500;2023-04-15T12:03:30;7.40;;;4.55;;
35839;SDS011;35514;50.504;30.500;2023-04-15T12:06:07;7.47;;;4.03;;
35839;SDS011;35514;50.504;30.500;2023-04-15T12:08:55;12.90;;;5.00;;
35839;SDS011;35514;50.504;30.500;2023-04-15T12:11:27;19.23;;;5.28;;
35839;SDS011;35514;50.504;30.500;2023-04-15T12:14:01;10.07;;;4.68;;
35839;SDS011;35514;50.504;30.500;2023-04-15T12:16:29;8.68;;;4.60;;
35839;SDS011;35514;50.504;30.500;2023-04-15T12:18:57;7.82;;;4.35;;
35839;SDS011;35514;50.504;30.500;2023-04-15T12:21:32;8.05;;;4.78;;
35839;SDS011;35514;50.504;30.500;2023-04-15T12:24:00;11.55;;;4.78;;
35839;SDS011;35514;50.504;30.500;2023-04-15T12:26:30;10.30;;;4.90;;
35839;SDS011;35514;50.504;30.500;2023-04-15T12:28:59;8.57;;;3.97;;
35839;SDS011;35514;50.504;30.500;2023-04-15T12:31:27;7.50;;;4.72;;
35839;SDS011;35514;50.504;30.500;2023-04-15T12:33:55;7.68;;;4.35;;
35839;SDS011;35514;50.504;30.500;2023-04-15T12:36:23;10.60;;;4.55;;
35839;SDS011;35514;50.504;30.500;2023-04-15T12:38:52;11.00;;;5.25;;
35839;SDS011;35514;50.504;30.500;2023-04-15T12:41:19;7.70;;;4.50;;
35839;SDS011;35514;50.504;30.500;2023-04-15T12:43:47;8.80;;;4.30;;
35839;SDS011;35514;50.504;30.500;2023-04-15T12:46:15;9.45;;;4.53;;
35839;SDS011;35514;50.504;30.500;2023-04-15T12:48:44;7.28;;;4.47;;
35839;SDS011;35514;50.504;30.500;2023-04-15T12:51:12;13.23;;;4.55;;
35839;SDS011;35514;50.504;30.500;2023-04-15T12:53:40;10.05;;;5.18;;
35839;SDS011;35514;50.504;30.500;2023-04-15T12:56:10;10.32;;;4.72;;
35839;SDS011;35514;50.504;30.500;2023-04-15T12:58:38;9.38;;;4.50;;
35839;SDS011;35514;50.504;30.500;2023-04-15T13:01:06;11.60;;;5.03;;
35839;SDS011;35514;50.504;30.500;2023-04-15T13:03:33;8.02;;;4.07;;
35839;SDS011;35514;50.504;30.500;2023-04-15T13:06:01;7.45;;;4.70;;
35839;SDS011;35514;50.504;30.500;2023-04-15T13:08:30;8.65;;;4.78;;
35839;SDS011;35514;50.504;30.500;2023-04-15T13:10:57;9.57;;;5.00;;
35839;SDS011;35514;50.504;30.500;2023-04-15T13:13:29;7.80;;;4.65;;
35839;SDS011;35514;50.504;30.500;2023-04-15T13:15:58;7.75;;;4.00;;
35839;SDS011;35514;50.504;30.500;2023-04-15T13:18:26;10.48;;;5.10;;
35839;SDS011;35514;50.504;30.500;2023-04-15T13:20:53;12.02;;;4.82;;
35839;SDS011;35514;50.504;30.500;2023-04-15T13:23:21;10.43;;;4.75;;
35839;SDS011;35514;50.504;30.500;2023-04-15T13:25:49;9.45;;;4.63;;
35839;SDS011;35514;50.504;30.500;2023-04-15T13:28:17;8.55;;;4.60;;
35839;SDS011;35514;50.504;30.500;2023-04-15T13:30:46;11.45;;;5.50;;
35839;SDS011;35514;50.504;30.500;2023-04-15T13:33:15;10.43;;;5.20;;
35839;SDS011;35514;50.504;30.500;2023-04-15T13:35:43;8.80;;;4.70;;
35839;SDS011;35514;50.504;30.500;2023-04-15T13:38:10;9.40;;;4.82;;
35839;SDS011;35514;50.504;30.500;2023-04-15T13:40:38;8.07;;;4.05;;
35839;SDS011;35514;50.504;30.500;2023-04-15T13:43:06;9.07;;;4.53;;
35839;SDS011;35514;50.504;30.500;2023-04-15T13:45:33;9.43;;;4.50;;
35839;SDS011;35514;50.504;30.500;2023-04-15T13:48:03;13.63;;;5.22;;
35839;SDS011;35514;50.504;30.500;2023-04-15T13:50:30;8.52;;;4.82;;
35839;SDS011;35514;50.504;30.500;2023-04-15T13:53:01;9.70;;;4.82;;
35839;SDS011;35514;50.504;30.500;2023-04-15T13:59:13;12.88;;;4.78;;
35839;SDS011;35514;50.504;30.500;2023-04-15T14:02:19;9.18;;;4.28;;
35839;SDS011;35514;50.504;30.500;2023-04-15T14:05:20;7.55;;;4.38;;
35839;SDS011;35514;50.504;30.500;2023-04-15T14:08:13;8.80;;;4.90;;
35839;SDS011;35514;50.504;30.500;2023-04-15T14:13:48;11.50;;;4.75;;
35839;SDS011;35514;50.504;30.500;2023-04-15T14:16:36;6.97;;;4.40;;
35839;SDS011;35514;50.504;30.500;2023-04-15T14:19:22;8.02;;;4.88;;
35839;SDS011;35514;50.504;30.500;2023-04-15T14:25:14;13.77;;;5.70;;
35839;SDS011;35514;50.504;30.500;2023-04-15T14:58:13;10.75;;;5.45;;
35839;SDS011;35514;50.504;30.500;2023-04-15T15:00:42;10.32;;;4.95;;
35839;SDS011;35514;50.504;30.500;2023-04-15T15:03:10;11.05;;;4.45;;
35839;SDS011;35514;50.504;30.500;2023-04-15T15:05:39;9.10;;;5.03;;
35839;SDS011;35514;50.504;30.500;2023-04-15T15:08:13;8.63;;;4.32;;
35839;SDS011;35514;50.504;30.500;2023-04-15T15:10:40;11.38;;;5.10;;
35839;SDS011;35514;50.504;30.500;2023-04-15T15:15:49;10.60;;;6.13;;
35839;SDS011;35514;50.504;30.500;2023-04-15T15:18:19;12.07;;;5.45;;
35839;SDS011;35514;50.504;30.500;2023-04-15T15:20:46;10.63;;;5.07;;
35839;SDS011;35514;50.504;30.500;2023-04-15T15:23:18;11.77;;;6.13;;
35839;SDS011;35514;50.504;30.500;2023-04-15T15:25:48;16.60;;;5.68;;
35839;SDS011;35514;50.504;30.500;2023-04-15T15:28:15;10.27;;;5.90;;
35839;SDS011;35514;50.504;30.500;2023-04-15T15:30:46;11.35;;;5.80;;
35839;SDS011;35514;50.504;30.500;2023-04-15T15:33:22;11.05;;;5.78;;
35839;SDS011;35514;50.504;30.500;2023-04-15T15:35:49;11.32;;;5.43;;